createdAt,value
2022-10-13T00:01:12.064Z,63.60
2022-10-13T00:03:40.688Z,62.50
2022-10-13T00:06:10.389Z,61.00
2022-10-13T00:08:38.409Z,70.60
2022-10-13T00:11:16.448Z,75.30
2022-10-13T00:13:45.400Z,79.50
2022-10-13T00:16:15.167Z,83.60
2022-10-13T00:18:42.830Z,82.90
2022-10-13T00:21:14.816Z,75.80
2022-10-13T00:23:42.045Z,68.00
2022-10-13T00:26:14.413Z,72.20
2022-10-13T00:28:41.657Z,74.00
2022-10-13T00:31:24.606Z,73.30
2022-10-13T00:33:53.076Z,71.40
2022-10-13T00:36:23.082Z,62.10
2022-10-13T00:38:51.342Z,80.40
2022-10-13T00:41:18.849Z,100.40
2022-10-13T00:44:46.301Z,84.70
2022-10-13T00:47:13.123Z,119.60
2022-10-13T00:49:39.969Z,117.00
2022-10-13T00:52:06.808Z,94.20
2022-10-13T00:54:33.957Z,90.80
2022-10-13T00:57:03.767Z,79.00
2022-10-13T00:59:31.022Z,75.50
2022-10-13T01:01:59.979Z,75.10
2022-10-13T01:04:32.589Z,81.40
2022-10-13T01:07:01.550Z,86.30
2022-10-13T01:09:35.407Z,80.50
2022-10-13T01:12:45.547Z,71.20
2022-10-13T01:15:25.712Z,91.90
2022-10-13T01:17:55.104Z,97.40
2022-10-13T01:20:40.075Z,112.00
2022-10-13T01:23:43.880Z,98.30
2022-10-13T01:26:48.814Z,75.50
2022-10-13T01:29:55.839Z,76.30
2022-10-13T01:32:57.458Z,80.80
2022-10-13T01:36:10.071Z,78.70
2022-10-13T01:39:02.209Z,84.60
2022-10-13T01:41:38.881Z,87.00
2022-10-13T01:44:16.477Z,83.20
2022-10-13T01:46:51.823Z,97.60
2022-10-13T01:49:23.806Z,134.80
2022-10-13T01:51:54.831Z,108.30
2022-10-13T01:54:22.175Z,88.70
2022-10-13T01:56:54.345Z,91.30
2022-10-13T01:59:24.619Z,79.20
2022-10-13T02:02:12.601Z,78.00
2022-10-13T02:04:47.226Z,79.80
2022-10-13T02:07:33.115Z,61.10
2022-10-13T02:10:24.033Z,76.30
2022-10-13T02:13:03.825Z,53.90
2022-10-13T02:15:37.778Z,80.80
2022-10-13T02:18:09.015Z,65.60
2022-10-13T02:20:36.700Z,92.30
2022-10-13T02:23:12.047Z,73.10
2022-10-13T02:25:40.756Z,52.70
2022-10-13T02:28:09.192Z,51.80
2022-10-13T02:30:45.090Z,67.20
2022-10-13T02:33:14.353Z,66.10
2022-10-13T02:35:42.429Z,76.40
2022-10-13T02:38:09.823Z,87.40
2022-10-13T02:40:37.124Z,98.50
2022-10-13T02:43:04.569Z,86.30
2022-10-13T02:45:31.774Z,78.80
2022-10-13T02:47:58.695Z,69.50
2022-10-13T02:50:25.519Z,44.10
2022-10-13T02:52:53.385Z,66.70
2022-10-13T02:55:20.227Z,75.50
2022-10-13T02:57:48.605Z,75.60
2022-10-13T03:00:16.751Z,70.20
2022-10-13T03:02:43.621Z,73.60
2022-10-13T03:05:11.305Z,83.70
2022-10-13T03:07:38.168Z,100.80
2022-10-13T03:10:06.071Z,118.40
2022-10-13T03:12:32.810Z,104.20
2022-10-13T03:14:59.575Z,77.70
2022-10-13T03:17:27.235Z,79.10
2022-10-13T03:19:54.081Z,76.10
2022-10-13T03:22:21.133Z,74.30
2022-10-13T03:24:49.196Z,71.20
2022-10-13T03:27:16.179Z,70.40
2022-10-13T03:29:42.982Z,74.60
2022-10-13T03:32:10.135Z,74.80
2022-10-13T03:34:36.975Z,89.70
2022-10-13T03:37:04.260Z,93.50
2022-10-13T03:39:33.868Z,127.60
2022-10-13T03:42:01.513Z,122.70
2022-10-13T03:44:28.544Z,100.80
2022-10-13T03:46:55.265Z,84.40
2022-10-13T03:49:22.124Z,79.20
2022-10-13T03:51:48.865Z,77.30
2022-10-13T03:54:15.707Z,78.90
2022-10-13T03:56:43.479Z,76.20
2022-10-13T03:59:13.046Z,79.70
2022-10-13T04:01:40.703Z,69.70
2022-10-13T04:04:10.845Z,75.80
2022-10-13T04:06:38.214Z,84.90
2022-10-13T04:09:05.581Z,103.50
2022-10-13T04:11:32.411Z,101.70
2022-10-13T04:13:59.663Z,106.20
2022-10-13T04:16:30.463Z,98.90
2022-10-13T04:19:05.459Z,79.10
2022-10-13T04:21:34.551Z,67.70
2022-10-13T04:24:02.595Z,63.00
2022-10-13T04:26:32.819Z,60.50
2022-10-13T04:29:06.520Z,66.30
2022-10-13T04:31:33.467Z,63.70
2022-10-13T04:34:00.410Z,69.50
2022-10-13T04:36:27.786Z,63.00
2022-10-13T04:38:55.286Z,77.20
2022-10-13T04:41:22.373Z,77.30
2022-10-13T04:43:51.137Z,82.60
2022-10-13T04:46:25.587Z,87.30
2022-10-13T04:48:55.723Z,63.40
2022-10-13T04:51:27.045Z,54.50
2022-10-13T04:53:57.883Z,53.10
2022-10-13T04:56:25.441Z,58.00
2022-10-13T04:58:52.182Z,56.10
2022-10-13T05:01:22.754Z,65.70
2022-10-13T05:03:59.786Z,68.60
2022-10-13T05:06:30.527Z,70.30
2022-10-13T05:08:57.675Z,58.10
2022-10-13T05:11:26.735Z,52.00
2022-10-13T05:13:54.740Z,52.30
2022-10-13T05:16:23.125Z,54.70
2022-10-13T05:18:51.899Z,50.70
2022-10-13T05:21:22.618Z,39.40
2022-10-13T05:23:49.791Z,44.60
2022-10-13T05:26:18.566Z,46.40
2022-10-13T05:28:46.349Z,69.00
2022-10-13T05:31:21.581Z,85.00
2022-10-13T05:33:49.329Z,95.90
2022-10-13T05:36:24.379Z,90.80
2022-10-13T05:38:53.682Z,88.40
2022-10-13T05:41:22.472Z,74.60
2022-10-13T05:43:51.664Z,60.20
2022-10-13T05:46:18.365Z,67.30
2022-10-13T05:48:45.144Z,92.70
2022-10-13T05:51:17.235Z,75.60
2022-10-13T05:53:54.178Z,70.30
2022-10-13T05:56:31.154Z,75.20
2022-10-13T05:59:03.470Z,75.60
2022-10-13T06:01:34.550Z,53.30
2022-10-13T06:04:06.379Z,46.00
2022-10-13T06:06:33.690Z,46.60
2022-10-13T06:09:01.499Z,48.90
2022-10-13T06:11:28.505Z,41.90
2022-10-13T06:13:55.348Z,51.10
2022-10-13T06:16:22.188Z,58.90
2022-10-13T06:18:49.265Z,40.80
2022-10-13T06:21:16.059Z,38.30
2022-10-13T06:23:42.921Z,42.30
2022-10-13T06:26:09.866Z,38.90
2022-10-13T06:28:37.326Z,22.70
2022-10-13T06:31:06.704Z,33.50
2022-10-13T06:33:34.596Z,75.20
2022-10-13T06:36:06.906Z,41.30
2022-10-13T06:38:34.317Z,31.60
2022-10-13T06:41:02.729Z,31.00
2022-10-13T06:43:35.997Z,28.00
2022-10-13T06:46:10.925Z,27.90
2022-10-13T06:48:38.174Z,23.00
2022-10-13T06:51:09.537Z,32.80
2022-10-13T06:53:36.956Z,31.80
2022-10-13T06:56:07.212Z,33.60
2022-10-13T06:58:38.517Z,28.50
2022-10-13T07:01:06.497Z,28.30
2022-10-13T07:03:33.323Z,28.80
2022-10-13T07:06:04.785Z,24.40
2022-10-13T07:08:34.802Z,21.70
2022-10-13T07:11:16.273Z,22.10
2022-10-13T07:13:47.458Z,24.90
2022-10-13T07:16:15.946Z,24.50
2022-10-13T07:18:42.888Z,24.00
2022-10-13T07:21:10.260Z,22.70
2022-10-13T07:23:37.181Z,24.40
2022-10-13T07:26:10.381Z,28.50
2022-10-13T07:28:38.302Z,23.20
2022-10-13T07:31:23.102Z,24.40
2022-10-13T07:33:51.756Z,23.80
2022-10-13T07:36:19.787Z,25.60
2022-10-13T07:38:47.932Z,27.70
2022-10-13T07:41:15.744Z,26.30
2022-10-13T07:43:43.047Z,30.90
2022-10-13T07:46:13.659Z,25.10
2022-10-13T07:48:40.723Z,31.80
2022-10-13T07:51:12.381Z,31.20
2022-10-13T07:53:41.224Z,27.40
2022-10-13T07:56:11.557Z,31.40
2022-10-13T07:58:41.228Z,32.40
2022-10-13T08:01:09.270Z,31.00
2022-10-13T08:03:39.401Z,32.00
2022-10-13T08:06:08.396Z,31.80
2022-10-13T08:08:35.541Z,33.80
2022-10-13T08:11:16.135Z,28.10
2022-10-13T08:13:48.913Z,24.20
2022-10-13T08:16:20.999Z,27.90
2022-10-13T08:18:49.471Z,26.90
2022-10-13T08:24:16.381Z,27.20
2022-10-13T08:26:46.424Z,28.70
2022-10-13T08:29:21.791Z,28.20
2022-10-13T08:34:23.530Z,22.20
2022-10-13T08:36:54.499Z,25.10
2022-10-13T08:39:24.431Z,28.30
2022-10-13T08:41:51.968Z,20.40
2022-10-13T08:45:21.787Z,24.70
2022-10-13T08:47:27.924Z,21.00
2022-10-13T08:50:07.867Z,25.10
2022-10-13T08:53:28.064Z,21.80
2022-10-13T08:56:21.522Z,18.00
2022-10-13T08:58:50.934Z,22.70
2022-10-13T09:01:30.173Z,20.90
2022-10-13T09:04:11.132Z,18.60
2022-10-13T09:06:45.773Z,22.40
2022-10-13T09:09:18.126Z,21.30
2022-10-13T09:11:49.066Z,21.20
2022-10-13T09:14:29.425Z,18.50
2022-10-13T09:17:16.684Z,19.90
2022-10-13T09:19:44.614Z,15.10
2022-10-13T09:22:25.796Z,18.30
2022-10-13T09:25:07.793Z,17.90
2022-10-13T09:27:46.728Z,22.30
2022-10-13T09:30:44.112Z,19.30
2022-10-13T09:33:13.626Z,24.00
2022-10-13T09:36:12.744Z,19.60
2022-10-13T09:38:43.515Z,21.00
2022-10-13T09:41:10.252Z,17.80
2022-10-13T09:43:59.933Z,17.10
2022-10-13T09:46:40.001Z,20.70
2022-10-13T09:49:25.462Z,16.90
2022-10-13T09:51:52.515Z,13.70
2022-10-13T09:54:48.193Z,16.70
2022-10-13T09:57:42.241Z,16.50
2022-10-13T10:00:23.897Z,15.50
2022-10-13T10:03:08.456Z,14.10
2022-10-13T10:05:59.860Z,14.70
2022-10-13T10:09:17.712Z,17.40
2022-10-13T10:11:48.030Z,15.50
2022-10-13T10:14:25.733Z,14.10
2022-10-13T10:17:14.817Z,14.90
2022-10-13T10:20:06.418Z,15.30
2022-10-13T10:23:11.764Z,12.10
2022-10-13T10:25:45.877Z,14.00
2022-10-13T10:28:24.640Z,14.50
2022-10-13T10:31:05.944Z,12.80
2022-10-13T10:34:16.822Z,11.40
2022-10-13T10:37:01.823Z,14.20
2022-10-13T10:39:47.957Z,12.90
2022-10-13T10:42:52.852Z,13.40
2022-10-13T10:45:26.459Z,11.80
2022-10-13T10:48:15.103Z,11.50
2022-10-13T10:50:42.362Z,14.60
2022-10-13T10:53:56.649Z,12.60
2022-10-13T10:56:29.336Z,11.40
2022-10-13T10:59:37.505Z,11.10
2022-10-13T11:02:12.281Z,13.40
2022-10-13T11:04:50.182Z,10.30
2022-10-13T11:07:22.475Z,12.00
2022-10-13T11:09:49.757Z,10.80
2022-10-13T11:12:19.663Z,8.20
2022-10-13T11:14:48.273Z,12.00
2022-10-13T11:17:40.078Z,11.30
2022-10-13T11:20:22.009Z,10.30
2022-10-13T11:23:00.599Z,10.60
2022-10-13T11:25:42.421Z,8.40
2022-10-13T11:28:21.661Z,8.50
2022-10-13T11:30:50.853Z,7.10
2022-10-13T11:33:38.761Z,10.10
2022-10-13T11:36:48.507Z,7.50
2022-10-13T11:39:28.243Z,7.20
2022-10-13T11:42:14.343Z,8.80
2022-10-13T11:44:58.492Z,9.70
2022-10-13T11:47:59.823Z,6.20
2022-10-13T11:50:44.407Z,9.80
2022-10-13T11:53:35.346Z,11.80
2022-10-13T11:56:02.188Z,11.10
2022-10-13T11:58:33.703Z,8.00
2022-10-13T12:01:11.187Z,8.30
2022-10-13T12:03:42.338Z,8.90
2022-10-13T12:06:33.895Z,11.40
2022-10-13T12:09:05.741Z,8.20
2022-10-13T12:11:36.989Z,12.30
2022-10-13T12:14:08.336Z,9.10
2022-10-13T12:16:36.089Z,8.80
2022-10-13T12:19:29.683Z,9.10
2022-10-13T12:22:01.571Z,10.00
2022-10-13T12:24:30.930Z,10.00
2022-10-13T12:26:58.802Z,8.30
2022-10-13T12:29:32.115Z,6.80
2022-10-13T12:32:00.572Z,7.90
2022-10-13T12:34:35.300Z,8.10
2022-10-13T12:37:33.720Z,8.70
2022-10-13T12:40:02.227Z,9.80
2022-10-13T12:42:32.048Z,8.70
2022-10-13T12:45:00.800Z,7.60
2022-10-13T12:47:44.669Z,8.00
2022-10-13T12:50:28.078Z,7.10
2022-10-13T12:53:09.131Z,8.10
2022-10-13T12:55:50.395Z,6.70
2022-10-13T12:58:42.735Z,8.30
2022-10-13T13:01:12.696Z,8.40
2022-10-13T13:03:42.433Z,7.90
2022-10-13T13:06:21.471Z,6.70
2022-10-13T13:09:25.775Z,8.30
2022-10-13T13:12:11.059Z,9.30
2022-10-13T13:14:44.559Z,9.50
2022-10-13T13:17:38.430Z,8.80
2022-10-13T13:20:29.544Z,8.90
2022-10-13T13:22:56.488Z,8.00
2022-10-13T13:25:24.586Z,8.60
2022-10-13T13:27:52.144Z,9.30
2022-10-13T13:30:23.273Z,8.10
2022-10-13T13:32:50.838Z,10.50
2022-10-13T13:35:17.810Z,9.30
2022-10-13T13:37:50.149Z,10.00
2022-10-13T13:40:24.353Z,10.30
2022-10-13T13:42:52.426Z,12.10
2022-10-13T13:45:22.441Z,10.10
2022-10-13T13:47:49.796Z,9.80
2022-10-13T13:50:26.701Z,13.20
2022-10-13T13:52:57.338Z,11.90
2022-10-13T13:55:26.119Z,10.10
2022-10-13T13:57:52.952Z,10.60
2022-10-13T14:00:20.930Z,9.80
2022-10-13T14:02:50.719Z,11.60
2022-10-13T14:05:17.865Z,10.40
2022-10-13T14:07:44.734Z,11.90
2022-10-13T14:10:11.782Z,10.40
2022-10-13T14:12:39.362Z,12.00
2022-10-13T14:15:08.030Z,14.20
2022-10-13T14:17:35.047Z,12.80
2022-10-13T14:20:02.170Z,17.50
2022-10-13T14:22:29.142Z,15.20
2022-10-13T14:24:56.187Z,13.30
2022-10-13T14:27:23.337Z,15.90
2022-10-13T14:29:50.179Z,18.30
2022-10-13T14:32:18.441Z,13.20
2022-10-13T14:34:45.504Z,10.20
2022-10-13T14:37:12.245Z,12.40
2022-10-13T14:39:39.313Z,17.30
2022-10-13T14:42:06.238Z,14.70
2022-10-13T14:44:33.179Z,16.00
2022-10-13T14:47:00.127Z,14.80
2022-10-13T14:49:27.120Z,17.40
2022-10-13T14:51:54.014Z,14.40
2022-10-13T14:54:20.905Z,12.70
2022-10-13T14:56:48.210Z,16.00
2022-10-13T14:59:15.258Z,20.30
2022-10-13T15:01:43.229Z,16.60
2022-10-13T15:04:10.174Z,15.00
2022-10-13T15:06:41.705Z,15.10
2022-10-13T15:09:10.407Z,17.90
2022-10-13T15:11:37.669Z,16.70
2022-10-13T15:14:04.811Z,17.30
2022-10-13T15:16:33.786Z,18.10
2022-10-13T15:19:00.749Z,15.60
2022-10-13T15:21:27.709Z,15.10
2022-10-13T15:23:54.531Z,16.50
2022-10-13T15:26:21.926Z,13.80
2022-10-13T15:28:51.833Z,18.60
2022-10-13T15:31:21.720Z,15.70
2022-10-13T15:33:52.270Z,13.80
2022-10-13T15:36:23.421Z,13.70
2022-10-13T15:38:51.666Z,15.90
2022-10-13T15:41:19.949Z,16.50
2022-10-13T15:43:48.351Z,17.70
2022-10-13T15:46:21.658Z,15.60
2022-10-13T15:48:49.782Z,16.70
2022-10-13T15:51:20.728Z,16.50
2022-10-13T15:53:48.594Z,17.30
2022-10-13T15:56:16.972Z,16.00
2022-10-13T15:58:44.225Z,19.20
2022-10-13T16:01:13.288Z,18.90
2022-10-13T16:03:41.371Z,19.80
2022-10-13T16:06:11.388Z,17.00
2022-10-13T16:08:41.015Z,20.50
2022-10-13T16:11:14.922Z,21.10
2022-10-13T16:13:49.308Z,21.10
2022-10-13T16:16:16.770Z,17.80
2022-10-13T16:18:44.896Z,17.10
2022-10-13T16:21:18.537Z,15.90
2022-10-13T16:23:47.477Z,18.40
2022-10-13T16:26:17.637Z,20.00
2022-10-13T16:28:46.122Z,21.90
2022-10-13T16:31:16.392Z,43.00
2022-10-13T16:33:45.201Z,45.20
2022-10-13T16:36:15.857Z,64.10
2022-10-13T16:38:45.107Z,38.00
2022-10-13T16:41:16.148Z,44.50
2022-10-13T16:43:44.974Z,58.20
2022-10-13T16:46:14.427Z,58.40
2022-10-13T16:48:43.495Z,56.00
2022-10-13T16:51:25.240Z,47.30
2022-10-13T16:53:58.640Z,95.10
2022-10-13T16:56:28.563Z,103.30
2022-10-13T16:58:58.283Z,82.40
2022-10-13T17:01:26.726Z,90.40
2022-10-13T17:03:54.105Z,99.10
2022-10-13T17:06:24.507Z,61.20
2022-10-13T17:08:57.119Z,136.20
2022-10-13T17:11:28.012Z,115.50
2022-10-13T17:13:57.431Z,130.50
2022-10-13T17:16:25.335Z,145.00
2022-10-13T17:18:52.034Z,129.90
2022-10-13T17:21:19.282Z,88.50
2022-10-13T17:23:48.619Z,101.10
2022-10-13T17:26:18.087Z,143.50
2022-10-13T17:28:45.901Z,115.50
2022-10-13T17:31:20.538Z,86.30
2022-10-13T17:33:48.695Z,111.50
2022-10-13T17:36:28.191Z,151.20
2022-10-13T17:38:56.872Z,129.80
2022-10-13T17:41:24.494Z,132.50
2022-10-13T17:43:52.527Z,143.70
2022-10-13T17:46:36.410Z,151.20
2022-10-13T17:49:05.631Z,145.60
2022-10-13T17:51:32.454Z,123.00
2022-10-13T17:54:00.798Z,177.80
2022-10-13T17:56:29.022Z,112.30
2022-10-13T17:58:57.010Z,137.70
2022-10-13T18:01:27.956Z,162.90
2022-10-13T18:04:06.057Z,177.80
2022-10-13T18:06:38.665Z,185.60
2022-10-13T18:09:15.472Z,183.70
2022-10-13T18:11:48.738Z,159.40
2022-10-13T18:14:17.494Z,151.50
2022-10-13T18:16:45.230Z,161.00
2022-10-13T18:19:13.227Z,123.30
2022-10-13T18:21:40.061Z,112.30
2022-10-13T18:24:09.261Z,134.90
2022-10-13T18:26:36.206Z,163.20
2022-10-13T18:29:05.168Z,169.70
2022-10-13T18:31:34.398Z,165.70
2022-10-13T18:34:05.027Z,151.10
2022-10-13T18:36:50.652Z,157.40
2022-10-13T18:39:28.203Z,145.80
2022-10-13T18:41:56.994Z,122.60
2022-10-13T18:44:28.746Z,122.10
2022-10-13T18:46:56.617Z,120.00
2022-10-13T18:49:31.221Z,155.50
2022-10-13T18:51:59.620Z,161.80
2022-10-13T18:54:28.082Z,122.20
2022-10-13T18:56:55.049Z,128.40
2022-10-13T18:59:22.089Z,135.40
2022-10-13T19:01:49.276Z,141.30
2022-10-13T19:04:17.109Z,137.80
2022-10-13T19:06:44.749Z,139.60
2022-10-13T19:09:15.946Z,150.40
2022-10-13T19:11:43.183Z,144.40
2022-10-13T19:14:13.716Z,129.40
2022-10-13T19:16:44.045Z,127.80
2022-10-13T19:19:11.499Z,139.20
2022-10-13T19:21:39.547Z,125.60
2022-10-13T19:24:09.767Z,118.70
2022-10-13T19:26:37.935Z,130.00
2022-10-13T19:29:11.409Z,109.60
2022-10-13T19:31:40.007Z,103.20
2022-10-13T19:34:08.189Z,106.00
2022-10-13T19:36:46.027Z,111.40
2022-10-13T19:39:23.687Z,125.10
2022-10-13T19:41:53.016Z,121.20
2022-10-13T19:44:20.934Z,115.60
2022-10-13T19:46:48.379Z,110.40
2022-10-13T19:49:18.430Z,112.50
2022-10-13T19:51:46.893Z,104.70
2022-10-13T19:54:14.467Z,115.20
2022-10-13T19:56:47.455Z,117.10
2022-10-13T19:59:15.170Z,151.30
2022-10-13T20:01:41.960Z,157.70
2022-10-13T20:04:13.295Z,165.30
2022-10-13T20:06:41.393Z,169.80
2022-10-13T20:09:08.658Z,141.20
2022-10-13T20:11:35.474Z,148.20
2022-10-13T20:14:02.322Z,142.60
2022-10-13T20:16:29.470Z,122.20
2022-10-13T20:18:59.912Z,72.80
2022-10-13T20:21:28.231Z,60.10
2022-10-13T20:23:57.059Z,78.40
2022-10-13T20:26:24.806Z,74.10
2022-10-13T20:28:53.741Z,63.50
2022-10-13T20:31:22.418Z,61.40
2022-10-13T20:33:54.686Z,55.30
2022-10-13T20:36:26.019Z,60.10
2022-10-13T20:38:53.400Z,54.70
2022-10-13T20:41:25.486Z,59.60
2022-10-13T20:43:55.350Z,50.30
2022-10-13T20:46:23.939Z,49.50
2022-10-13T20:51:41.497Z,61.00
2022-10-13T20:54:10.124Z,81.40
2022-10-13T20:56:38.129Z,91.40
2022-10-13T20:59:08.765Z,78.50
2022-10-13T21:01:37.056Z,228.90
2022-10-13T21:04:05.238Z,56.30
2022-10-13T21:06:32.156Z,53.40
2022-10-13T21:09:00.627Z,58.10
2022-10-13T21:11:27.478Z,57.10
2022-10-13T21:13:54.532Z,51.90
2022-10-13T21:16:27.835Z,52.40
2022-10-13T21:18:56.650Z,50.70
2022-10-13T21:21:29.588Z,46.30
2022-10-13T21:23:59.716Z,45.30
2022-10-13T21:26:29.344Z,56.00
2022-10-13T21:28:56.990Z,56.70
2022-10-13T21:31:25.699Z,56.60
2022-10-13T21:33:52.631Z,54.30
2022-10-13T21:36:22.219Z,60.90
2022-10-13T21:38:56.748Z,71.90
2022-10-13T21:41:24.288Z,68.70
2022-10-13T21:43:52.485Z,68.10
2022-10-13T21:46:29.047Z,72.90
2022-10-13T21:48:59.381Z,67.30
2022-10-13T21:51:32.989Z,62.00
2022-10-13T21:54:04.907Z,49.20
2022-10-13T21:56:33.903Z,51.60
2022-10-13T21:59:01.595Z,52.00
2022-10-13T22:01:28.959Z,51.70
2022-10-13T22:04:01.158Z,61.50
2022-10-13T22:06:30.499Z,66.20
2022-10-13T22:09:01.042Z,67.60
2022-10-13T22:11:31.471Z,52.70
2022-10-13T22:13:59.375Z,52.10
2022-10-13T22:16:31.541Z,57.10
2022-10-13T22:18:58.990Z,57.50
2022-10-13T22:21:30.512Z,62.90
2022-10-13T22:24:07.593Z,87.10
2022-10-13T22:26:37.931Z,79.00
2022-10-13T22:29:06.730Z,84.80
2022-10-13T22:31:34.273Z,92.50
2022-10-13T22:34:08.888Z,69.30
2022-10-13T22:36:35.628Z,87.80
2022-10-13T22:39:06.071Z,170.40
2022-10-13T22:41:34.575Z,121.20
2022-10-13T22:44:01.995Z,69.60
2022-10-13T22:46:33.353Z,70.70
2022-10-13T22:49:01.616Z,68.60
2022-10-13T22:51:31.650Z,73.00
2022-10-13T22:53:59.416Z,67.40
2022-10-13T22:56:30.005Z,73.70
2022-10-13T22:59:04.757Z,67.40
2022-10-13T23:01:31.803Z,69.30
2022-10-13T23:03:59.743Z,58.90
2022-10-13T23:06:29.997Z,61.90
2022-10-13T23:09:04.210Z,65.30
2022-10-13T23:11:31.050Z,63.00
2022-10-13T23:13:58.707Z,63.30
2022-10-13T23:16:27.195Z,63.10
2022-10-13T23:18:54.428Z,52.60
2022-10-13T23:21:27.397Z,55.00
2022-10-13T23:24:00.556Z,59.90
2022-10-13T23:26:29.309Z,54.30
2022-10-13T23:28:57.821Z,56.50
2022-10-13T23:31:27.203Z,53.90
2022-10-13T23:33:55.057Z,55.90
2022-10-13T23:36:25.911Z,55.60
2022-10-13T23:39:05.025Z,51.40
2022-10-13T23:41:32.909Z,46.40
2022-10-13T23:44:00.248Z,44.60
2022-10-13T23:46:27.193Z,46.00
2022-10-13T23:48:54.034Z,49.50
2022-10-13T23:51:24.254Z,44.40
2022-10-13T23:53:52.428Z,50.40
2022-10-13T23:56:20.110Z,47.30
2022-10-13T23:58:47.618Z,55.60
